sensor_id;sensor_type;location;lat;lon;timestamp;temperature;humidity
6662;DHT22;3367;48.714;8.994;2022-07-18T00:01:18;16.90;1.00
6662;DHT22;3367;48.714;8.994;2022-07-18T00:03:45;16.80;1.00
6662;DHT22;3367;48.714;8.994;2022-07-18T00:06:12;16.70;1.00
6662;DHT22;3367;48.714;8.994;2022-07-18T00:08:38;16.50;1.00
6662;DHT22;3367;48.714;8.994;2022-07-18T00:11:05;16.50;1.00
6662;DHT22;3367;48.714;8.994;2022-07-18T00:13:32;16.60;1.00
6662;DHT22;3367;48.714;8.994;2022-07-18T00:15:59;16.40;1.00
6662;DHT22;3367;48.714;8.994;2022-07-18T00:18:27;16.30;1.00
6662;DHT22;3367;48.714;8.994;2022-07-18T00:20:54;16.20;1.00
6662;DHT22;3367;48.714;8.994;2022-07-18T00:23:21;16.10;1.00
6662;DHT22;3367;48.714;8.994;2022-07-18T00:25:48;16.00;1.00
6662;DHT22;3367;48.714;8.994;2022-07-18T00:28:15;15.90;1.00
6662;DHT22;3367;48.714;8.994;2022-07-18T00:30:42;15.90;1.00
6662;DHT22;3367;48.714;8.994;2022-07-18T00:33:09;15.90;1.00
6662;DHT22;3367;48.714;8.994;2022-07-18T00:35:37;16.10;1.00
6662;DHT22;3367;48.714;8.994;2022-07-18T00:38:04;16.00;1.00
6662;DHT22;3367;48.714;8.994;2022-07-18T00:40:32;15.90;1.00
6662;DHT22;3367;48.714;8.994;2022-07-18T00:42:59;15.80;1.00
6662;DHT22;3367;48.714;8.994;2022-07-18T00:45:26;15.70;1.00
6662;DHT22;3367;48.714;8.994;2022-07-18T00:47:53;15.70;1.00
6662;DHT22;3367;48.714;8.994;2022-07-18T00:50:21;15.80;1.00
6662;DHT22;3367;48.714;8.994;2022-07-18T00:52:50;15.90;1.00
6662;DHT22;3367;48.714;8.994;2022-07-18T00:55:17;16.10;1.00
6662;DHT22;3367;48.714;8.994;2022-07-18T00:57:44;16.00;1.00
6662;DHT22;3367;48.714;8.994;2022-07-18T01:00:13;15.80;1.00
6662;DHT22;3367;48.714;8.994;2022-07-18T01:02:58;15.90;1.00
6662;DHT22;3367;48.714;8.994;2022-07-18T01:05:25;15.80;1.00
6662;DHT22;3367;48.714;8.994;2022-07-18T01:07:53;15.70;1.00
6662;DHT22;3367;48.714;8.994;2022-07-18T01:10:20;15.60;1.00
6662;DHT22;3367;48.714;8.994;2022-07-18T01:12:47;15.50;1.00
6662;DHT22;3367;48.714;8.994;2022-07-18T01:15:14;15.50;1.00
6662;DHT22;3367;48.714;8.994;2022-07-18T01:17:41;15.40;1.00
6662;DHT22;3367;48.714;8.994;2022-07-18T01:20:09;15.30;1.00
6662;DHT22;3367;48.714;8.994;2022-07-18T01:22:37;15.20;1.00
6662;DHT22;3367;48.714;8.994;2022-07-18T01:25:07;15.30;1.00
6662;DHT22;3367;48.714;8.994;2022-07-18T01:27:35;15.20;1.00
6662;DHT22;3367;48.714;8.994;2022-07-18T01:30:04;15.10;1.00
6662;DHT22;3367;48.714;8.994;2022-07-18T01:32:31;15.00;1.00
6662;DHT22;3367;48.714;8.994;2022-07-18T01:34:58;14.90;1.00
6662;DHT22;3367;48.714;8.994;2022-07-18T01:37:25;15.00;1.00
6662;DHT22;3367;48.714;8.994;2022-07-18T01:39:53;14.80;1.00
6662;DHT22;3367;48.714;8.994;2022-07-18T01:42:20;14.80;1.00
6662;DHT22;3367;48.714;8.994;2022-07-18T01:44:47;14.90;1.00
6662;DHT22;3367;48.714;8.994;2022-07-18T01:47:14;15.00;1.00
6662;DHT22;3367;48.714;8.994;2022-07-18T01:49:42;15.00;1.00
6662;DHT22;3367;48.714;8.994;2022-07-18T01:52:09;15.00;1.00
6662;DHT22;3367;48.714;8.994;2022-07-18T01:54:37;15.00;1.00
6662;DHT22;3367;48.714;8.994;2022-07-18T01:57:06;15.00;1.00
6662;DHT22;3367;48.714;8.994;2022-07-18T01:59:34;15.00;1.00
6662;DHT22;3367;48.714;8.994;2022-07-18T02:02:02;15.00;1.00
6662;DHT22;3367;48.714;8.994;2022-07-18T02:04:29;15.00;1.00
6662;DHT22;3367;48.714;8.994;2022-07-18T02:07:13;15.00;1.00
6662;DHT22;3367;48.714;8.994;2022-07-18T02:09:40;15.00;1.00
6662;DHT22;3367;48.714;8.994;2022-07-18T02:12:08;14.90;1.00
6662;DHT22;3367;48.714;8.994;2022-07-18T02:14:35;14.90;1.00
6662;DHT22;3367;48.714;8.994;2022-07-18T02:17:02;14.80;1.00
6662;DHT22;3367;48.714;8.994;2022-07-18T02:19:29;14.70;1.00
6662;DHT22;3367;48.714;8.994;2022-07-18T02:21:56;14.90;1.00
6662;DHT22;3367;48.714;8.994;2022-07-18T02:24:23;14.80;1.00
6662;DHT22;3367;48.714;8.994;2022-07-18T02:26:50;14.70;1.00
6662;DHT22;3367;48.714;8.994;2022-07-18T02:29:18;14.60;1.00
6662;DHT22;3367;48.714;8.994;2022-07-18T02:31:45;14.50;1.00
6662;DHT22;3367;48.714;8.994;2022-07-18T02:34:12;14.40;1.00
6662;DHT22;3367;48.714;8.994;2022-07-18T02:36:40;14.40;1.00
6662;DHT22;3367;48.714;8.994;2022-07-18T02:39:07;14.30;1.00
6662;DHT22;3367;48.714;8.994;2022-07-18T02:41:35;14.30;1.00
6662;DHT22;3367;48.714;8.994;2022-07-18T02:44:02;14.20;1.00
6662;DHT22;3367;48.714;8.994;2022-07-18T02:46:31;14.20;1.00
6662;DHT22;3367;48.714;8.994;2022-07-18T02:48:58;14.30;1.00
6662;DHT22;3367;48.714;8.994;2022-07-18T02:51:25;14.20;1.00
6662;DHT22;3367;48.714;8.994;2022-07-18T02:53:52;14.20;1.00
6662;DHT22;3367;48.714;8.994;2022-07-18T02:56:19;14.10;1.00
6662;DHT22;3367;48.714;8.994;2022-07-18T02:58:46;14.10;1.00
6662;DHT22;3367;48.714;8.994;2022-07-18T03:01:13;14.10;1.00
6662;DHT22;3367;48.714;8.994;2022-07-18T03:03:41;14.10;1.00
6662;DHT22;3367;48.714;8.994;2022-07-18T03:06:08;14.00;1.00
6662;DHT22;3367;48.714;8.994;2022-07-18T03:08:35;14.00;1.00
6662;DHT22;3367;48.714;8.994;2022-07-18T03:11:02;14.00;1.00
6662;DHT22;3367;48.714;8.994;2022-07-18T03:13:29;14.10;1.00
6662;DHT22;3367;48.714;8.994;2022-07-18T03:15:55;14.00;1.00
6662;DHT22;3367;48.714;8.994;2022-07-18T03:18:22;13.90;1.00
6662;DHT22;3367;48.714;8.994;2022-07-18T03:20:52;13.90;1.00
6662;DHT22;3367;48.714;8.994;2022-07-18T03:23:20;13.80;1.00
6662;DHT22;3367;48.714;8.994;2022-07-18T03:25:46;13.80;1.00
6662;DHT22;3367;48.714;8.994;2022-07-18T03:28:13;13.80;1.00
6662;DHT22;3367;48.714;8.994;2022-07-18T03:30:40;13.90;1.00
6662;DHT22;3367;48.714;8.994;2022-07-18T03:33:07;14.00;1.00
6662;DHT22;3367;48.714;8.994;2022-07-18T03:35:35;14.10;1.00
6662;DHT22;3367;48.714;8.994;2022-07-18T03:38:03;14.30;1.00
6662;DHT22;3367;48.714;8.994;2022-07-18T03:40:30;14.50;1.00
6662;DHT22;3367;48.714;8.994;2022-07-18T03:42:57;14.50;1.00
6662;DHT22;3367;48.714;8.994;2022-07-18T03:45:24;14.40;1.00
6662;DHT22;3367;48.714;8.994;2022-07-18T03:47:51;14.40;1.00
6662;DHT22;3367;48.714;8.994;2022-07-18T03:50:17;14.30;1.00
6662;DHT22;3367;48.714;8.994;2022-07-18T03:52:44;14.20;1.00
6662;DHT22;3367;48.714;8.994;2022-07-18T03:55:12;14.10;1.00
6662;DHT22;3367;48.714;8.994;2022-07-18T03:57:39;14.10;1.00
6662;DHT22;3367;48.714;8.994;2022-07-18T04:00:07;14.10;1.00
6662;DHT22;3367;48.714;8.994;2022-07-18T04:02:37;14.00;1.00
6662;DHT22;3367;48.714;8.994;2022-07-18T04:05:05;14.10;1.00
6662;DHT22;3367;48.714;8.994;2022-07-18T04:07:32;14.10;1.00
6662;DHT22;3367;48.714;8.994;2022-07-18T04:09:59;14.20;1.00
6662;DHT22;3367;48.714;8.994;2022-07-18T04:12:27;14.10;1.00
6662;DHT22;3367;48.714;8.994;2022-07-18T04:14:54;14.10;1.00
6662;DHT22;3367;48.714;8.994;2022-07-18T04:17:21;14.00;1.00
6662;DHT22;3367;48.714;8.994;2022-07-18T04:19:48;14.00;1.00
6662;DHT22;3367;48.714;8.994;2022-07-18T04:22:15;14.10;1.00
6662;DHT22;3367;48.714;8.994;2022-07-18T04:24:42;14.10;1.00
6662;DHT22;3367;48.714;8.994;2022-07-18T04:27:09;14.20;1.00
6662;DHT22;3367;48.714;8.994;2022-07-18T04:29:37;14.30;1.00
6662;DHT22;3367;48.714;8.994;2022-07-18T04:32:05;14.30;1.00
6662;DHT22;3367;48.714;8.994;2022-07-18T04:34:32;14.30;1.00
6662;DHT22;3367;48.714;8.994;2022-07-18T04:36:59;14.20;1.00
6662;DHT22;3367;48.714;8.994;2022-07-18T04:39:26;14.20;1.00
6662;DHT22;3367;48.714;8.994;2022-07-18T04:41:53;14.30;1.00
6662;DHT22;3367;48.714;8.994;2022-07-18T04:44:20;14.20;1.00
6662;DHT22;3367;48.714;8.994;2022-07-18T04:46:48;14.20;1.00
6662;DHT22;3367;48.714;8.994;2022-07-18T04:49:15;14.00;1.00
6662;DHT22;3367;48.714;8.994;2022-07-18T04:51:42;14.20;1.00
6662;DHT22;3367;48.714;8.994;2022-07-18T04:54:09;14.20;1.00
6662;DHT22;3367;48.714;8.994;2022-07-18T04:56:37;14.20;1.00
6662;DHT22;3367;48.714;8.994;2022-07-18T04:59:04;14.30;1.00
6662;DHT22;3367;48.714;8.994;2022-07-18T05:01:31;14.40;1.00
6662;DHT22;3367;48.714;8.994;2022-07-18T05:04:01;14.40;1.00
6662;DHT22;3367;48.714;8.994;2022-07-18T05:06:29;14.50;1.00
6662;DHT22;3367;48.714;8.994;2022-07-18T05:08:55;14.60;1.00
6662;DHT22;3367;48.714;8.994;2022-07-18T05:11:22;14.70;1.00
6662;DHT22;3367;48.714;8.994;2022-07-18T05:13:49;14.80;1.00
6662;DHT22;3367;48.714;8.994;2022-07-18T05:16:16;15.00;1.00
6662;DHT22;3367;48.714;8.994;2022-07-18T05:18:43;15.00;1.00
6662;DHT22;3367;48.714;8.994;2022-07-18T05:21:11;15.20;1.00
6662;DHT22;3367;48.714;8.994;2022-07-18T05:23:38;15.30;1.00
6662;DHT22;3367;48.714;8.994;2022-07-18T05:26:05;15.40;1.00
6662;DHT22;3367;48.714;8.994;2022-07-18T05:28:32;15.70;1.00
6662;DHT22;3367;48.714;8.994;2022-07-18T05:30:59;16.00;1.00
6662;DHT22;3367;48.714;8.994;2022-07-18T05:33:26;16.40;1.00
6662;DHT22;3367;48.714;8.994;2022-07-18T05:35:53;16.80;1.00
6662;DHT22;3367;48.714;8.994;2022-07-18T05:38:21;17.40;1.00
6662;DHT22;3367;48.714;8.994;2022-07-18T05:40:48;17.90;1.00
6662;DHT22;3367;48.714;8.994;2022-07-18T05:43:15;18.40;1.00
6662;DHT22;3367;48.714;8.994;2022-07-18T05:45:42;19.00;1.00
6662;DHT22;3367;48.714;8.994;2022-07-18T05:48:09;19.60;1.00
6662;DHT22;3367;48.714;8.994;2022-07-18T05:50:35;20.20;1.00
6662;DHT22;3367;48.714;8.994;2022-07-18T05:53:02;20.60;1.00
6662;DHT22;3367;48.714;8.994;2022-07-18T05:55:31;21.00;1.00
6662;DHT22;3367;48.714;8.994;2022-07-18T05:57:58;20.90;1.00
6662;DHT22;3367;48.714;8.994;2022-07-18T06:00:24;21.20;1.00
6662;DHT22;3367;48.714;8.994;2022-07-18T06:02:51;21.30;1.00
6662;DHT22;3367;48.714;8.994;2022-07-18T06:05:18;21.50;1.00
6662;DHT22;3367;48.714;8.994;2022-07-18T06:07:45;21.80;1.00
6662;DHT22;3367;48.714;8.994;2022-07-18T06:10:12;22.20;1.00
6662;DHT22;3367;48.714;8.994;2022-07-18T06:12:40;22.30;1.00
6662;DHT22;3367;48.714;8.994;2022-07-18T06:15:08;22.50;1.00
6662;DHT22;3367;48.714;8.994;2022-07-18T06:17:36;22.80;1.00
6662;DHT22;3367;48.714;8.994;2022-07-18T06:20:04;23.10;1.00
6662;DHT22;3367;48.714;8.994;2022-07-18T06:22:33;23.30;1.00
6662;DHT22;3367;48.714;8.994;2022-07-18T06:25:00;23.40;1.00
6662;DHT22;3367;48.714;8.994;2022-07-18T06:27:27;23.40;1.00
6662;DHT22;3367;48.714;8.994;2022-07-18T06:29:55;23.20;1.00
6662;DHT22;3367;48.714;8.994;2022-07-18T06:32:22;23.30;1.00
6662;DHT22;3367;48.714;8.994;2022-07-18T06:34:49;23.40;1.00
6662;DHT22;3367;48.714;8.994;2022-07-18T06:37:16;23.50;1.00
6662;DHT22;3367;48.714;8.994;2022-07-18T06:39:43;23.60;1.00
6662;DHT22;3367;48.714;8.994;2022-07-18T06:42:09;23.80;1.00
6662;DHT22;3367;48.714;8.994;2022-07-18T06:44:36;23.50;1.00
6662;DHT22;3367;48.714;8.994;2022-07-18T06:47:04;23.70;1.00
6662;DHT22;3367;48.714;8.994;2022-07-18T06:49:31;23.60;1.00
6662;DHT22;3367;48.714;8.994;2022-07-18T06:51:58;24.00;1.00
6662;DHT22;3367;48.714;8.994;2022-07-18T06:54:25;24.00;1.00
6662;DHT22;3367;48.714;8.994;2022-07-18T06:56:53;24.20;1.00
6662;DHT22;3367;48.714;8.994;2022-07-18T06:59:20;23.90;1.00
6662;DHT22;3367;48.714;8.994;2022-07-18T07:01:47;24.00;1.00
6662;DHT22;3367;48.714;8.994;2022-07-18T07:04:15;24.30;1.00
6662;DHT22;3367;48.714;8.994;2022-07-18T07:06:42;24.60;1.00
6662;DHT22;3367;48.714;8.994;2022-07-18T07:09:09;25.10;1.00
6662;DHT22;3367;48.714;8.994;2022-07-18T07:11:36;25.40;1.00
6662;DHT22;3367;48.714;8.994;2022-07-18T07:14:03;25.30;1.00
6662;DHT22;3367;48.714;8.994;2022-07-18T07:16:30;25.30;1.00
6662;DHT22;3367;48.714;8.994;2022-07-18T07:18:56;25.50;1.00
6662;DHT22;3367;48.714;8.994;2022-07-18T07:21:25;25.70;1.00
6662;DHT22;3367;48.714;8.994;2022-07-18T07:23:51;25.90;1.00
6662;DHT22;3367;48.714;8.994;2022-07-18T07:26:18;25.90;1.00
6662;DHT22;3367;48.714;8.994;2022-07-18T07:28:45;26.20;1.00
6662;DHT22;3367;48.714;8.994;2022-07-18T07:31:12;26.30;1.00
6662;DHT22;3367;48.714;8.994;2022-07-18T07:33:39;26.30;1.00
6662;DHT22;3367;48.714;8.994;2022-07-18T07:36:06;26.70;1.00
6662;DHT22;3367;48.714;8.994;2022-07-18T07:38:34;27.00;1.00
6662;DHT22;3367;48.714;8.994;2022-07-18T07:41:01;27.10;1.00
6662;DHT22;3367;48.714;8.994;2022-07-18T07:43:28;27.20;1.00
6662;DHT22;3367;48.714;8.994;2022-07-18T07:45:55;27.10;1.00
6662;DHT22;3367;48.714;8.994;2022-07-18T07:48:22;27.20;1.00
6662;DHT22;3367;48.714;8.994;2022-07-18T07:50:49;27.40;1.00
6662;DHT22;3367;48.714;8.994;2022-07-18T07:53:17;27.70;1.00
6662;DHT22;3367;48.714;8.994;2022-07-18T07:55:45;28.00;1.00
6662;DHT22;3367;48.714;8.994;2022-07-18T07:58:12;28.10;1.00
6662;DHT22;3367;48.714;8.994;2022-07-18T08:00:39;28.00;1.00
6662;DHT22;3367;48.714;8.994;2022-07-18T08:03:07;28.10;1.00
6662;DHT22;3367;48.714;8.994;2022-07-18T08:05:36;28.50;1.00
6662;DHT22;3367;48.714;8.994;2022-07-18T08:08:04;28.60;1.00
6662;DHT22;3367;48.714;8.994;2022-07-18T08:10:31;28.60;1.00
6662;DHT22;3367;48.714;8.994;2022-07-18T08:13:00;28.50;1.00
6662;DHT22;3367;48.714;8.994;2022-07-18T08:15:27;28.90;1.00
6662;DHT22;3367;48.714;8.994;2022-07-18T08:17:54;28.90;1.00
6662;DHT22;3367;48.714;8.994;2022-07-18T08:20:21;28.90;1.00
6662;DHT22;3367;48.714;8.994;2022-07-18T08:22:55;28.90;1.00
6662;DHT22;3367;48.714;8.994;2022-07-18T08:25:23;29.30;1.00
6662;DHT22;3367;48.714;8.994;2022-07-18T08:27:50;29.50;1.00
6662;DHT22;3367;48.714;8.994;2022-07-18T08:30:18;29.30;1.00
6662;DHT22;3367;48.714;8.994;2022-07-18T08:32:45;29.40;1.00
6662;DHT22;3367;48.714;8.994;2022-07-18T08:35:12;29.40;1.00
6662;DHT22;3367;48.714;8.994;2022-07-18T08:37:39;29.50;1.00
6662;DHT22;3367;48.714;8.994;2022-07-18T08:40:07;29.50;1.00
6662;DHT22;3367;48.714;8.994;2022-07-18T08:42:34;29.30;1.00
6662;DHT22;3367;48.714;8.994;2022-07-18T08:45:03;29.30;1.00
6662;DHT22;3367;48.714;8.994;2022-07-18T08:47:32;29.30;1.00
6662;DHT22;3367;48.714;8.994;2022-07-18T08:50:00;29.20;1.00
6662;DHT22;3367;48.714;8.994;2022-07-18T08:52:28;29.00;1.00
6662;DHT22;3367;48.714;8.994;2022-07-18T08:54:55;29.00;1.00
6662;DHT22;3367;48.714;8.994;2022-07-18T08:57:22;29.00;1.00
6662;DHT22;3367;48.714;8.994;2022-07-18T08:59:50;29.00;1.00
6662;DHT22;3367;48.714;8.994;2022-07-18T09:02:16;29.00;1.00
6662;DHT22;3367;48.714;8.994;2022-07-18T09:04:45;28.90;1.00
6662;DHT22;3367;48.714;8.994;2022-07-18T09:07:23;29.00;1.00
6662;DHT22;3367;48.714;8.994;2022-07-18T09:09:52;29.00;1.00
6662;DHT22;3367;48.714;8.994;2022-07-18T09:12:20;29.00;1.00
6662;DHT22;3367;48.714;8.994;2022-07-18T09:14:47;29.20;1.00
6662;DHT22;3367;48.714;8.994;2022-07-18T09:17:16;28.80;1.00
6662;DHT22;3367;48.714;8.994;2022-07-18T09:19:58;28.90;1.00
6662;DHT22;3367;48.714;8.994;2022-07-18T09:22:27;28.80;1.00
6662;DHT22;3367;48.714;8.994;2022-07-18T09:25:03;28.80;1.00
6662;DHT22;3367;48.714;8.994;2022-07-18T09:27:33;28.80;1.00
6662;DHT22;3367;48.714;8.994;2022-07-18T09:30:24;28.60;1.00
6662;DHT22;3367;48.714;8.994;2022-07-18T09:32:53;28.20;1.00
6662;DHT22;3367;48.714;8.994;2022-07-18T09:35:25;28.10;1.00
6662;DHT22;3367;48.714;8.994;2022-07-18T09:37:55;27.90;1.00
6662;DHT22;3367;48.714;8.994;2022-07-18T09:40:25;28.00;1.00
6662;DHT22;3367;48.714;8.994;2022-07-18T09:42:53;28.00;1.00
6662;DHT22;3367;48.714;8.994;2022-07-18T09:45:24;28.10;1.00
6662;DHT22;3367;48.714;8.994;2022-07-18T09:47:53;28.30;1.00
6662;DHT22;3367;48.714;8.994;2022-07-18T09:50:24;28.60;1.00
6662;DHT22;3367;48.714;8.994;2022-07-18T09:55:43;28.60;1.00
6662;DHT22;3367;48.714;8.994;2022-07-18T09:58:11;28.40;1.00
6662;DHT22;3367;48.714;8.994;2022-07-18T10:00:38;28.20;1.00
6662;DHT22;3367;48.714;8.994;2022-07-18T10:03:07;28.10;1.00
6662;DHT22;3367;48.714;8.994;2022-07-18T10:05:36;28.10;1.00
6662;DHT22;3367;48.714;8.994;2022-07-18T10:08:05;28.20;1.00
6662;DHT22;3367;48.714;8.994;2022-07-18T10:10:32;28.40;1.00
6662;DHT22;3367;48.714;8.994;2022-07-18T10:13:01;28.40;1.00
6662;DHT22;3367;48.714;8.994;2022-07-18T10:15:29;28.60;1.00
6662;DHT22;3367;48.714;8.994;2022-07-18T10:17:57;28.60;1.00
6662;DHT22;3367;48.714;8.994;2022-07-18T10:20:26;28.80;1.00
6662;DHT22;3367;48.714;8.994;2022-07-18T10:22:57;29.00;1.00
6662;DHT22;3367;48.714;8.994;2022-07-18T10:25:25;29.00;1.00
6662;DHT22;3367;48.714;8.994;2022-07-18T10:27:54;29.00;1.00
6662;DHT22;3367;48.714;8.994;2022-07-18T10:30:37;29.00;1.00
6662;DHT22;3367;48.714;8.994;2022-07-18T10:33:42;28.90;1.00
6662;DHT22;3367;48.714;8.994;2022-07-18T10:36:11;28.90;1.00
6662;DHT22;3367;48.714;8.994;2022-07-18T10:39:03;29.10;1.00
6662;DHT22;3367;48.714;8.994;2022-07-18T10:41:31;29.30;1.00
6662;DHT22;3367;48.714;8.994;2022-07-18T10:43:58;29.30;1.00
6662;DHT22;3367;48.714;8.994;2022-07-18T10:47:04;29.40;1.00
6662;DHT22;3367;48.714;8.994;2022-07-18T10:50:06;29.50;1.00
6662;DHT22;3367;48.714;8.994;2022-07-18T10:52:55;29.50;1.00
6662;DHT22;3367;48.714;8.994;2022-07-18T10:55:27;29.30;1.00
6662;DHT22;3367;48.714;8.994;2022-07-18T10:58:16;29.40;1.00
6662;DHT22;3367;48.714;8.994;2022-07-18T11:00:45;29.50;1.00
6662;DHT22;3367;48.714;8.994;2022-07-18T11:03:14;29.50;1.00
6662;DHT22;3367;48.714;8.994;2022-07-18T11:05:45;29.50;1.00
6662;DHT22;3367;48.714;8.994;2022-07-18T11:08:19;29.70;1.00
6662;DHT22;3367;48.714;8.994;2022-07-18T11:11:05;29.90;1.00
6662;DHT22;3367;48.714;8.994;2022-07-18T11:13:34;30.00;1.00
6662;DHT22;3367;48.714;8.994;2022-07-18T11:16:02;29.30;1.00
6662;DHT22;3367;48.714;8.994;2022-07-18T11:18:31;29.20;1.00
6662;DHT22;3367;48.714;8.994;2022-07-18T11:20:59;29.20;1.00
6662;DHT22;3367;48.714;8.994;2022-07-18T11:23:27;29.40;1.00
6662;DHT22;3367;48.714;8.994;2022-07-18T11:25:56;29.40;1.00
6662;DHT22;3367;48.714;8.994;2022-07-18T11:28:24;29.50;1.00
6662;DHT22;3367;48.714;8.994;2022-07-18T11:31:02;29.50;1.00
6662;DHT22;3367;48.714;8.994;2022-07-18T11:33:31;29.70;1.00
6662;DHT22;3367;48.714;8.994;2022-07-18T11:36:11;29.80;1.00
6662;DHT22;3367;48.714;8.994;2022-07-18T11:38:45;29.90;1.00
6662;DHT22;3367;48.714;8.994;2022-07-18T11:41:13;29.80;1.00
6662;DHT22;3367;48.714;8.994;2022-07-18T11:43:40;29.80;1.00
6662;DHT22;3367;48.714;8.994;2022-07-18T11:46:11;29.90;1.00
6662;DHT22;3367;48.714;8.994;2022-07-18T11:48:39;30.00;1.00
6662;DHT22;3367;48.714;8.994;2022-07-18T11:51:10;29.90;1.00
6662;DHT22;3367;48.714;8.994;2022-07-18T11:53:42;29.70;1.00
6662;DHT22;3367;48.714;8.994;2022-07-18T11:56:09;29.40;1.00
6662;DHT22;3367;48.714;8.994;2022-07-18T11:58:37;29.40;1.00
6662;DHT22;3367;48.714;8.994;2022-07-18T12:01:04;29.50;1.00
6662;DHT22;3367;48.714;8.994;2022-07-18T12:03:34;29.50;1.00
6662;DHT22;3367;48.714;8.994;2022-07-18T12:06:11;29.50;1.00
6662;DHT22;3367;48.714;8.994;2022-07-18T12:08:40;29.60;1.00
6662;DHT22;3367;48.714;8.994;2022-07-18T12:11:13;29.50;1.00
6662;DHT22;3367;48.714;8.994;2022-07-18T12:13:48;29.60;1.00
6662;DHT22;3367;48.714;8.994;2022-07-18T12:16:26;29.60;1.00
6662;DHT22;3367;48.714;8.994;2022-07-18T12:18:55;29.60;1.00
6662;DHT22;3367;48.714;8.994;2022-07-18T12:21:24;29.50;1.00
6662;DHT22;3367;48.714;8.994;2022-07-18T12:24:26;29.50;1.00
6662;DHT22;3367;48.714;8.994;2022-07-18T12:27:15;29.50;1.00
6662;DHT22;3367;48.714;8.994;2022-07-18T12:30:02;29.60;1.00
6662;DHT22;3367;48.714;8.994;2022-07-18T12:32:36;29.60;1.00
6662;DHT22;3367;48.714;8.994;2022-07-18T12:35:05;29.60;1.00
6662;DHT22;3367;48.714;8.994;2022-07-18T12:37:34;29.50;1.00
6662;DHT22;3367;48.714;8.994;2022-07-18T12:40:03;29.40;1.00
6662;DHT22;3367;48.714;8.994;2022-07-18T12:42:32;29.60;1.00
6662;DHT22;3367;48.714;8.994;2022-07-18T12:45:00;29.90;1.00
6662;DHT22;3367;48.714;8.994;2022-07-18T12:47:27;30.10;1.00
6662;DHT22;3367;48.714;8.994;2022-07-18T12:49:54;30.20;1.00
6662;DHT22;3367;48.714;8.994;2022-07-18T12:52:22;30.40;1.00
6662;DHT22;3367;48.714;8.994;2022-07-18T12:54:51;30.40;1.00
6662;DHT22;3367;48.714;8.994;2022-07-18T12:57:18;30.40;1.00
6662;DHT22;3367;48.714;8.994;2022-07-18T12:59:46;30.50;1.00
6662;DHT22;3367;48.714;8.994;2022-07-18T13:02:14;30.30;1.00
6662;DHT22;3367;48.714;8.994;2022-07-18T13:04:41;30.00;1.00
6662;DHT22;3367;48.714;8.994;2022-07-18T13:07:08;29.80;1.00
6662;DHT22;3367;48.714;8.994;2022-07-18T13:09:34;29.90;1.00
6662;DHT22;3367;48.714;8.994;2022-07-18T13:12:03;29.80;1.00
6662;DHT22;3367;48.714;8.994;2022-07-18T13:14:31;29.70;1.00
6662;DHT22;3367;48.714;8.994;2022-07-18T13:16:58;29.60;1.00
6662;DHT22;3367;48.714;8.994;2022-07-18T13:19:25;29.70;1.00
6662;DHT22;3367;48.714;8.994;2022-07-18T13:21:52;29.80;1.00
6662;DHT22;3367;48.714;8.994;2022-07-18T13:24:19;29.90;1.00
6662;DHT22;3367;48.714;8.994;2022-07-18T13:26:46;30.00;1.00
6662;DHT22;3367;48.714;8.994;2022-07-18T13:29:14;30.10;1.00
6662;DHT22;3367;48.714;8.994;2022-07-18T13:31:41;30.40;1.00
6662;DHT22;3367;48.714;8.994;2022-07-18T13:34:08;30.50;1.00
6662;DHT22;3367;48.714;8.994;2022-07-18T13:36:35;30.60;1.00
6662;DHT22;3367;48.714;8.994;2022-07-18T13:39:01;30.70;1.00
6662;DHT22;3367;48.714;8.994;2022-07-18T13:41:29;30.60;1.00
6662;DHT22;3367;48.714;8.994;2022-07-18T13:43:56;30.50;1.00
6662;DHT22;3367;48.714;8.994;2022-07-18T13:46:24;30.60;1.00
6662;DHT22;3367;48.714;8.994;2022-07-18T13:48:51;30.60;1.00
6662;DHT22;3367;48.714;8.994;2022-07-18T13:51:18;30.60;1.00
6662;DHT22;3367;48.714;8.994;2022-07-18T13:53:44;30.80;1.00
6662;DHT22;3367;48.714;8.994;2022-07-18T13:56:11;30.80;1.00
6662;DHT22;3367;48.714;8.994;2022-07-18T13:58:38;31.00;1.00
6662;DHT22;3367;48.714;8.994;2022-07-18T14:01:05;30.80;1.00
6662;DHT22;3367;48.714;8.994;2022-07-18T14:03:34;30.90;1.00
6662;DHT22;3367;48.714;8.994;2022-07-18T14:06:01;30.90;1.00
6662;DHT22;3367;48.714;8.994;2022-07-18T14:08:28;30.90;1.00
6662;DHT22;3367;48.714;8.994;2022-07-18T14:10:55;31.00;1.00
6662;DHT22;3367;48.714;8.994;2022-07-18T14:13:22;31.00;1.00
6662;DHT22;3367;48.714;8.994;2022-07-18T14:15:49;31.10;1.00
6662;DHT22;3367;48.714;8.994;2022-07-18T14:18:16;31.10;1.00
6662;DHT22;3367;48.714;8.994;2022-07-18T14:20:44;31.10;1.00
6662;DHT22;3367;48.714;8.994;2022-07-18T14:23:11;31.20;1.00
6662;DHT22;3367;48.714;8.994;2022-07-18T14:25:38;31.00;1.00
6662;DHT22;3367;48.714;8.994;2022-07-18T14:28:04;30.80;1.00
6662;DHT22;3367;48.714;8.994;2022-07-18T14:30:32;30.90;1.00
6662;DHT22;3367;48.714;8.994;2022-07-18T14:32:59;30.90;1.00
6662;DHT22;3367;48.714;8.994;2022-07-18T14:35:26;30.90;1.00
6662;DHT22;3367;48.714;8.994;2022-07-18T14:37:54;30.90;1.00
6662;DHT22;3367;48.714;8.994;2022-07-18T14:40:21;30.90;1.00
6662;DHT22;3367;48.714;8.994;2022-07-18T14:42:48;30.80;1.00
6662;DHT22;3367;48.714;8.994;2022-07-18T14:45:16;30.70;1.00
6662;DHT22;3367;48.714;8.994;2022-07-18T14:47:43;30.80;1.00
6662;DHT22;3367;48.714;8.994;2022-07-18T14:50:10;30.80;1.00
6662;DHT22;3367;48.714;8.994;2022-07-18T14:52:38;30.80;1.00
6662;DHT22;3367;48.714;8.994;2022-07-18T14:55:07;30.80;1.00
6662;DHT22;3367;48.714;8.994;2022-07-18T14:57:35;30.80;1.00
6662;DHT22;3367;48.714;8.994;2022-07-18T15:00:04;30.80;1.00
6662;DHT22;3367;48.714;8.994;2022-07-18T15:02:32;30.80;1.00
6662;DHT22;3367;48.714;8.994;2022-07-18T15:04:59;30.90;1.00
6662;DHT22;3367;48.714;8.994;2022-07-18T15:07:25;30.90;1.00
6662;DHT22;3367;48.714;8.994;2022-07-18T15:09:52;31.00;1.00
6662;DHT22;3367;48.714;8.994;2022-07-18T15:12:21;31.00;1.00
6662;DHT22;3367;48.714;8.994;2022-07-18T15:14:48;31.00;1.00
6662;DHT22;3367;48.714;8.994;2022-07-18T15:17:15;31.00;1.00
6662;DHT22;3367;48.714;8.994;2022-07-18T15:19:42;31.00;1.00
6662;DHT22;3367;48.714;8.994;2022-07-18T15:22:09;30.90;1.00
6662;DHT22;3367;48.714;8.994;2022-07-18T15:24:35;30.90;1.00
6662;DHT22;3367;48.714;8.994;2022-07-18T15:27:02;30.80;1.00
6662;DHT22;3367;48.714;8.994;2022-07-18T15:29:31;30.80;1.00
6662;DHT22;3367;48.714;8.994;2022-07-18T15:31:58;30.70;1.00
6662;DHT22;3367;48.714;8.994;2022-07-18T15:34:25;30.60;1.00
6662;DHT22;3367;48.714;8.994;2022-07-18T15:36:52;30.60;1.00
6662;DHT22;3367;48.714;8.994;2022-07-18T15:39:18;30.60;1.00
6662;DHT22;3367;48.714;8.994;2022-07-18T15:41:45;30.60;1.00
6662;DHT22;3367;48.714;8.994;2022-07-18T15:44:12;30.60;1.00
6662;DHT22;3367;48.714;8.994;2022-07-18T15:46:40;30.70;1.00
6662;DHT22;3367;48.714;8.994;2022-07-18T15:49:07;30.70;1.00
6662;DHT22;3367;48.714;8.994;2022-07-18T15:51:34;30.70;1.00
6662;DHT22;3367;48.714;8.994;2022-07-18T15:54:03;30.70;1.00
6662;DHT22;3367;48.714;8.994;2022-07-18T15:56:30;30.80;1.00
6662;DHT22;3367;48.714;8.994;2022-07-18T15:58:57;30.70;1.00
6662;DHT22;3367;48.714;8.994;2022-07-18T16:01:23;30.70;1.00
6662;DHT22;3367;48.714;8.994;2022-07-18T16:03:52;30.70;1.00
6662;DHT22;3367;48.714;8.994;2022-07-18T16:06:18;30.60;1.00
6662;DHT22;3367;48.714;8.994;2022-07-18T16:08:45;30.60;1.00
6662;DHT22;3367;48.714;8.994;2022-07-18T16:11:12;30.60;1.00
6662;DHT22;3367;48.714;8.994;2022-07-18T16:13:39;30.60;1.00
6662;DHT22;3367;48.714;8.994;2022-07-18T16:16:06;30.60;1.00
6662;DHT22;3367;48.714;8.994;2022-07-18T16:18:33;30.60;1.00
6662;DHT22;3367;48.714;8.994;2022-07-18T16:21:01;30.60;1.00
6662;DHT22;3367;48.714;8.994;2022-07-18T16:23:28;30.60;1.00
6662;DHT22;3367;48.714;8.994;2022-07-18T16:25:55;30.50;1.00
6662;DHT22;3367;48.714;8.994;2022-07-18T16:28:22;30.50;1.00